Time;durP1;ratioP1;P1;durP2;ratioP2;P2;SDS_P1;SDS_P2;PMS_P1;PMS_P2;Temp;Humidity;BMP_temperature;BMP_pressure;BME280_temperature;BME280_humidity;BME280_pressure;Samples;Min_cycle;Max_cycle;Signal;HPM_P1;HPM_P2
2023/09/10 00:01:34;;;;;;;30.92;23.33;;;;;;;;;;5034509;28;20018;-27
2023/09/10 00:03:59;;;;;;;31.20;23.73;;;;;;;;;;5034423;28;20052;-26
2023/09/10 00:06:24;;;;;;;29.37;23.47;;;;;;;;;;5034629;28;20283;-26
2023/09/10 00:08:49;;;;;;;30.80;24.20;;;;;;;;;;5034239;28;20634;-27
2023/09/10 00:11:14;;;;;;;32.17;23.98;;;;;;;;;;5034339;28;20256;-27
2023/09/10 00:13:40;;;;;;;30.80;24.50;;;;;;;;;;5034274;28;20083;-27
2023/09/10 00:16:05;;;;;;;32.60;24.60;;;;;;;;;;5034217;28;20049;-27
2023/09/10 00:18:30;;;;;;;32.33;24.17;;;;;;;;;;5034173;28;20291;-27
2023/09/10 00:20:55;;;;;;;30.20;25.23;;;;;;;;;;5034142;28;20347;-26
2023/09/10 00:23:21;;;;;;;32.58;24.63;;;;;;;;;;5016349;28;20376;-26
2023/09/10 00:25:47;;;;;;;35.22;26.60;;;;;;;;;;5034273;28;20083;-27
2023/09/10 00:28:12;;;;;;;36.65;26.38;;;;;;;;;;5034044;28;20071;-28
2023/09/10 00:30:38;;;;;;;34.90;25.38;;;;;;;;;;5034306;28;20192;-27
2023/09/10 00:33:03;;;;;;;30.97;25.77;;;;;;;;;;5034468;28;20017;-27
2023/09/10 00:35:28;;;;;;;33.75;25.83;;;;;;;;;;5034824;28;20276;-27
2023/09/10 00:37:53;;;;;;;32.50;25.50;;;;;;;;;;5034000;28;20010;-27
2023/09/10 00:40:19;;;;;;;35.20;25.77;;;;;;;;;;5033140;28;20252;-28
2023/09/10 00:42:44;;;;;;;34.22;26.27;;;;;;;;;;5033803;28;20048;-27
2023/09/10 00:45:10;;;;;;;32.45;25.10;;;;;;;;;;5033734;28;20108;-28
2023/09/10 00:47:37;;;;;;;31.70;25.83;;;;;;;;;;5034220;28;20029;-27
2023/09/10 00:50:03;;;;;;;33.30;25.52;;;;;;;;;;5033502;28;20025;-27
2023/09/10 00:52:28;;;;;;;41.00;25.42;;;;;;;;;;5033946;28;20433;-27
2023/09/10 00:54:54;;;;;;;33.85;26.90;;;;;;;;;;5033582;28;20027;-27
2023/09/10 00:57:20;;;;;;;33.90;26.40;;;;;;;;;;5033591;28;20017;-27
2023/09/10 00:59:45;;;;;;;32.47;25.70;;;;;;;;;;5033408;28;20375;-27
2023/09/10 01:02:13;;;;;;;34.25;26.27;;;;;;;;;;5033736;28;20502;-28
2023/09/10 01:04:39;;;;;;;31.25;25.73;;;;;;;;;;5033440;28;20021;-27
2023/09/10 01:07:04;;;;;;;31.65;26.05;;;;;;;;;;5033476;28;20018;-27
2023/09/10 01:09:29;;;;;;;33.90;25.48;;;;;;;;;;5033954;28;20025;-26
2023/09/10 01:11:54;;;;;;;32.65;26.42;;;;;;;;;;5033335;28;20349;-27
2023/09/10 01:14:23;;;;;;;31.47;25.07;;;;;;;;;;5033774;28;20021;-27
2023/09/10 01:16:54;;;;;;;34.42;25.52;;;;;;;;;;5033393;28;20057;-27
2023/09/10 01:19:36;;;;;;;31.25;26.00;;;;;;;;;;5033899;28;20024;-27
2023/09/10 01:22:09;;;;;;;32.08;25.95;;;;;;;;;;5033233;28;20017;-27
2023/09/10 01:24:47;;;;;;;34.80;26.17;;;;;;;;;;5033228;28;20025;-26
2023/09/10 01:27:13;;;;;;;35.00;24.95;;;;;;;;;;5033251;28;20349;-27
2023/09/10 01:29:38;;;;;;;30.90;24.58;;;;;;;;;;5033502;28;20021;-27
2023/09/10 01:32:05;;;;;;;34.30;25.20;;;;;;;;;;5033171;28;20468;-27
2023/09/10 01:34:33;;;;;;;31.95;25.20;;;;;;;;;;5033345;28;20014;-27
2023/09/10 01:37:02;;;;;;;29.80;24.70;;;;;;;;;;5033156;28;20040;-26
2023/09/10 01:39:37;;;;;;;33.13;25.38;;;;;;;;;;5015460;28;20376;-26
2023/09/10 01:42:06;;;;;;;32.90;25.80;;;;;;;;;;5032373;28;20049;-26
2023/09/10 01:44:32;;;;;;;31.55;24.30;;;;;;;;;;5032271;28;20055;-26
2023/09/10 01:46:57;;;;;;;32.92;24.83;;;;;;;;;;5032318;28;20096;-26
2023/09/10 01:49:23;;;;;;;31.92;24.50;;;;;;;;;;5032089;28;20049;-26
2023/09/10 01:51:48;;;;;;;32.47;25.40;;;;;;;;;;5035762;28;20021;-27
2023/09/10 01:54:14;;;;;;;36.50;26.23;;;;;;;;;;5036119;28;20018;-28
2023/09/10 01:56:39;;;;;;;33.58;26.08;;;;;;;;;;5036424;28;20056;-27
2023/09/10 01:59:04;;;;;;;34.23;25.80;;;;;;;;;;5037172;28;20080;-27
2023/09/10 02:01:29;;;;;;;34.47;25.73;;;;;;;;;;5036777;28;20271;-27
2023/09/10 02:03:54;;;;;;;37.30;26.42;;;;;;;;;;5036489;28;20268;-27
2023/09/10 02:06:20;;;;;;;35.57;26.60;;;;;;;;;;5036148;28;20017;-26
2023/09/10 02:08:45;;;;;;;34.43;26.73;;;;;;;;;;5036655;28;20022;-27
2023/09/10 02:11:12;;;;;;;33.08;27.25;;;;;;;;;;5037287;28;20262;-27
2023/09/10 02:13:37;;;;;;;38.05;28.27;;;;;;;;;;5037106;28;20509;-27
2023/09/10 02:16:02;;;;;;;37.33;28.60;;;;;;;;;;5036392;28;20105;-27
2023/09/10 02:18:28;;;;;;;37.97;28.15;;;;;;;;;;5036986;28;20368;-26
2023/09/10 02:20:53;;;;;;;31.85;27.58;;;;;;;;;;5036386;28;20021;-27
2023/09/10 02:23:18;;;;;;;36.20;28.23;;;;;;;;;;5036928;28;20116;-26
2023/09/10 02:25:43;;;;;;;34.97;27.90;;;;;;;;;;5036232;28;20707;-27
2023/09/10 02:28:09;;;;;;;34.57;27.23;;;;;;;;;;5036479;28;20750;-27
2023/09/10 02:30:34;;;;;;;35.67;27.90;;;;;;;;;;5036420;28;20024;-27
2023/09/10 02:32:59;;;;;;;36.87;27.63;;;;;;;;;;5036670;28;20355;-26
2023/09/10 02:35:24;;;;;;;38.47;28.13;;;;;;;;;;5036056;28;20446;-27
2023/09/10 02:37:49;;;;;;;34.33;26.42;;;;;;;;;;5036316;28;20260;-26
2023/09/10 02:40:15;;;;;;;34.40;26.90;;;;;;;;;;5036294;28;20030;-26
2023/09/10 02:42:40;;;;;;;32.53;25.95;;;;;;;;;;5035981;28;20256;-26
2023/09/10 02:45:06;;;;;;;33.88;26.63;;;;;;;;;;5035995;28;20023;-27
2023/09/10 02:47:31;;;;;;;32.30;26.75;;;;;;;;;;5036411;28;20452;-27
2023/09/10 02:49:57;;;;;;;34.20;27.70;;;;;;;;;;5036087;28;20024;-26
2023/09/10 02:52:24;;;;;;;35.58;27.20;;;;;;;;;;5036050;28;20033;-26
2023/09/10 02:54:50;;;;;;;44.97;27.77;;;;;;;;;;5036642;28;20364;-26
2023/09/10 02:57:15;;;;;;;35.22;26.60;;;;;;;;;;5035978;28;20013;-26
2023/09/10 02:59:40;;;;;;;32.43;26.43;;;;;;;;;;5035494;28;20077;-26
2023/09/10 03:02:05;;;;;;;33.40;27.03;;;;;;;;;;5035243;28;20022;-26
2023/09/10 03:04:30;;;;;;;32.88;26.83;;;;;;;;;;5035553;28;20746;-27
2023/09/10 03:06:56;;;;;;;33.50;26.80;;;;;;;;;;5036078;28;20033;-26
2023/09/10 03:09:21;;;;;;;36.78;28.25;;;;;;;;;;5035443;28;20020;-27
2023/09/10 03:11:46;;;;;;;33.03;26.17;;;;;;;;;;5035699;28;20063;-26
2023/09/10 03:14:12;;;;;;;35.55;26.65;;;;;;;;;;5035394;28;20022;-26
2023/09/10 03:16:38;;;;;;;30.95;26.58;;;;;;;;;;5035538;28;20372;-26
2023/09/10 03:19:04;;;;;;;32.50;26.67;;;;;;;;;;5035591;28;20018;-27
2023/09/10 03:21:29;;;;;;;34.00;26.10;;;;;;;;;;5035247;28;20357;-27
2023/09/10 03:23:54;;;;;;;30.57;27.13;;;;;;;;;;5035243;28;20043;-27
2023/09/10 03:26:19;;;;;;;34.40;26.92;;;;;;;;;;5035095;28;20036;-28
2023/09/10 03:28:45;;;;;;;34.38;26.55;;;;;;;;;;5035187;28;20515;-28
2023/09/10 03:31:10;;;;;;;34.78;27.25;;;;;;;;;;5035640;28;20048;-28
2023/09/10 03:33:35;;;;;;;34.77;26.77;;;;;;;;;;5035111;28;20431;-26
2023/09/10 03:36:00;;;;;;;34.30;26.33;;;;;;;;;;5034909;28;20747;-27
2023/09/10 03:38:26;;;;;;;38.83;25.70;;;;;;;;;;5035510;28;20025;-26
2023/09/10 03:40:51;;;;;;;36.83;25.83;;;;;;;;;;5034924;28;20768;-27
2023/09/10 03:43:16;;;;;;;31.60;26.13;;;;;;;;;;5034879;28;20024;-26
2023/09/10 03:45:41;;;;;;;32.93;25.50;;;;;;;;;;5034809;28;20310;-27
2023/09/10 03:48:07;;;;;;;30.40;24.45;;;;;;;;;;5034767;28;20256;-27
2023/09/10 03:50:32;;;;;;;31.17;25.57;;;;;;;;;;5034637;28;20029;-26
2023/09/10 03:52:57;;;;;;;32.47;25.60;;;;;;;;;;5035229;28;20267;-26
2023/09/10 03:55:22;;;;;;;32.27;26.00;;;;;;;;;;5034801;28;20283;-27
2023/09/10 03:57:47;;;;;;;36.00;26.17;;;;;;;;;;5035405;28;20411;-26
2023/09/10 04:00:13;;;;;;;32.58;25.63;;;;;;;;;;5034573;28;20674;-26
2023/09/10 04:02:38;;;;;;;32.25;24.92;;;;;;;;;;5034760;28;20021;-26
2023/09/10 04:05:04;;;;;;;31.33;25.37;;;;;;;;;;5034970;28;20096;-27
2023/09/10 04:07:29;;;;;;;32.58;25.35;;;;;;;;;;5034327;28;20031;-27
2023/09/10 04:09:54;;;;;;;32.90;25.37;;;;;;;;;;5034361;28;20021;-27
2023/09/10 04:12:19;;;;;;;32.80;25.97;;;;;;;;;;5034272;28;20264;-27
2023/09/10 04:14:45;;;;;;;34.93;26.27;;;;;;;;;;5034629;28;20341;-27
2023/09/10 04:17:14;;;;;;;33.03;24.67;;;;;;;;;;5034192;28;20017;-27
2023/09/10 04:19:39;;;;;;;31.80;25.10;;;;;;;;;;5034707;28;20022;-27
2023/09/10 04:22:04;;;;;;;29.37;25.70;;;;;;;;;;5034181;28;20020;-27
2023/09/10 04:24:30;;;;;;;33.03;25.33;;;;;;;;;;5034090;28;20372;-27
2023/09/10 04:26:55;;;;;;;32.67;25.20;;;;;;;;;;5034299;28;20014;-27
2023/09/10 04:29:21;;;;;;;32.27;25.53;;;;;;;;;;5034050;28;20363;-27
2023/09/10 04:31:47;;;;;;;37.15;25.70;;;;;;;;;;5033983;28;20014;-27
2023/09/10 04:34:12;;;;;;;33.67;26.00;;;;;;;;;;5034494;28;20018;-27
2023/09/10 04:36:37;;;;;;;33.53;25.60;;;;;;;;;;5034090;28;20758;-27
2023/09/10 04:39:08;;;;;;;33.77;25.63;;;;;;;;;;5034114;28;20282;-27
2023/09/10 04:41:33;;;;;;;33.65;25.98;;;;;;;;;;5034118;28;20370;-27
2023/09/10 04:43:59;;;;;;;33.45;25.20;;;;;;;;;;5033771;28;20021;-27
2023/09/10 04:46:24;;;;;;;35.15;26.15;;;;;;;;;;5033730;28;20022;-27
2023/09/10 04:48:50;;;;;;;32.60;26.17;;;;;;;;;;5033704;28;20024;-27
2023/09/10 04:51:15;;;;;;;33.42;25.45;;;;;;;;;;5033878;28;20357;-27
2023/09/10 04:53:42;;;;;;;34.50;26.00;;;;;;;;;;5033615;28;20049;-27
2023/09/10 04:56:07;;;;;;;30.08;25.90;;;;;;;;;;5033464;28;20280;-27
2023/09/10 04:58:32;;;;;;;33.07;25.17;;;;;;;;;;5033367;28;20029;-28
2023/09/10 05:00:57;;;;;;;36.47;25.00;;;;;;;;;;5034133;28;20266;-27
2023/09/10 05:03:23;;;;;;;36.80;24.43;;;;;;;;;;5033545;28;20734;-27
2023/09/10 05:05:54;;;;;;;30.10;24.77;;;;;;;;;;5016002;28;20449;-27
2023/09/10 05:08:20;;;;;;;34.78;25.65;;;;;;;;;;5033504;28;20265;-27
2023/09/10 05:10:47;;;;;;;31.60;24.90;;;;;;;;;;5033496;28;20024;-27
2023/09/10 05:13:13;;;;;;;33.05;25.27;;;;;;;;;;5033329;28;20264;-27
2023/09/10 05:15:38;;;;;;;32.70;23.93;;;;;;;;;;5033269;28;20028;-27
2023/09/10 05:18:03;;;;;;;32.93;25.00;;;;;;;;;;5033897;28;20633;-27
2023/09/10 05:20:29;;;;;;;35.88;24.00;;;;;;;;;;5033893;28;20698;-27
2023/09/10 05:22:55;;;;;;;32.97;24.80;;;;;;;;;;5033363;28;20017;-28
2023/09/10 05:25:20;;;;;;;31.40;24.83;;;;;;;;;;5035086;28;20100;-26
2023/09/10 05:27:46;;;;;;;33.70;24.13;;;;;;;;;;5037687;28;20248;-27
2023/09/10 05:30:11;;;;;;;29.80;23.70;;;;;;;;;;5037632;28;20463;-27
2023/09/10 05:32:37;;;;;;;36.13;24.48;;;;;;;;;;5037586;28;20024;-27
2023/09/10 05:35:03;;;;;;;30.57;23.83;;;;;;;;;;5037422;28;20018;-27
2023/09/10 05:37:28;;;;;;;27.65;22.88;;;;;;;;;;5037543;28;20260;-26
2023/09/10 05:39:53;;;;;;;28.77;23.02;;;;;;;;;;5037157;28;20029;-26
2023/09/10 05:42:18;;;;;;;29.17;23.40;;;;;;;;;;5037102;28;20021;-27
2023/09/10 05:44:44;;;;;;;30.67;22.77;;;;;;;;;;5037070;28;20584;-28
2023/09/10 05:47:09;;;;;;;26.40;22.07;;;;;;;;;;5036930;28;20029;-26
2023/09/10 05:49:35;;;;;;;28.47;22.87;;;;;;;;;;5037301;28;20101;-26
2023/09/10 05:52:00;;;;;;;28.42;22.83;;;;;;;;;;5036966;28;20323;-26
2023/09/10 05:54:25;;;;;;;26.43;22.27;;;;;;;;;;5036742;28;20056;-26
2023/09/10 05:56:50;;;;;;;26.47;22.43;;;;;;;;;;5037180;28;20028;-26
2023/09/10 05:59:16;;;;;;;26.73;21.30;;;;;;;;;;5036666;28;20345;-27
2023/09/10 06:01:41;;;;;;;28.87;21.50;;;;;;;;;;5036630;28;20645;-27
2023/09/10 06:04:06;;;;;;;29.20;21.30;;;;;;;;;;5036615;28;20014;-27
2023/09/10 06:06:31;;;;;;;29.33;21.40;;;;;;;;;;5037071;28;20328;-27
2023/09/10 06:08:56;;;;;;;29.30;20.40;;;;;;;;;;5037030;28;20248;-27
2023/09/10 06:11:22;;;;;;;24.30;20.23;;;;;;;;;;5036436;28;20108;-27
2023/09/10 06:13:47;;;;;;;25.50;20.87;;;;;;;;;;5036376;28;20036;-27
2023/09/10 06:16:12;;;;;;;27.90;21.13;;;;;;;;;;5036280;28;20370;-28
2023/09/10 06:18:37;;;;;;;25.17;20.00;;;;;;;;;;5036330;28;20013;-27
2023/09/10 06:21:02;;;;;;;25.43;20.60;;;;;;;;;;5036331;28;20014;-27
2023/09/10 06:23:27;;;;;;;26.53;20.77;;;;;;;;;;5036330;28;20271;-27
2023/09/10 06:25:53;;;;;;;26.57;20.83;;;;;;;;;;5036180;28;20252;-28
2023/09/10 06:28:18;;;;;;;24.83;20.00;;;;;;;;;;5036397;28;20267;-27
2023/09/10 06:30:43;;;;;;;28.27;20.27;;;;;;;;;;5036627;28;20263;-27
2023/09/10 06:33:08;;;;;;;24.93;19.10;;;;;;;;;;5036419;28;20029;-27
2023/09/10 06:35:34;;;;;;;28.73;19.50;;;;;;;;;;5018265;28;20276;-27
2023/09/10 06:37:59;;;;;;;25.02;19.17;;;;;;;;;;5034674;28;20310;-27
2023/09/10 06:40:24;;;;;;;25.27;19.13;;;;;;;;;;5035855;28;20013;-27
2023/09/10 06:42:49;;;;;;;21.77;19.25;;;;;;;;;;5036415;28;20256;-27
2023/09/10 06:45:15;;;;;;;22.37;18.87;;;;;;;;;;5035881;28;20060;-27
2023/09/10 06:47:40;;;;;;;21.95;18.20;;;;;;;;;;5035765;28;20279;-28
2023/09/10 06:50:05;;;;;;;25.13;18.60;;;;;;;;;;5035701;28;20017;-27
2023/09/10 06:52:30;;;;;;;25.60;18.80;;;;;;;;;;5035578;28;20025;-27
2023/09/10 06:54:56;;;;;;;23.47;17.20;;;;;;;;;;5036184;28;20045;-27
2023/09/10 06:57:21;;;;;;;20.97;17.40;;;;;;;;;;5035609;28;20075;-27
2023/09/10 06:59:46;;;;;;;24.43;16.83;;;;;;;;;;5035700;28;20044;-27
2023/09/10 07:02:11;;;;;;;18.17;15.40;;;;;;;;;;5035362;28;20288;-27
2023/09/10 07:04:37;;;;;;;21.85;15.82;;;;;;;;;;5017705;28;20528;-27
2023/09/10 07:07:02;;;;;;;20.27;14.82;;;;;;;;;;5035987;28;20014;-27
2023/09/10 07:09:27;;;;;;;15.93;13.32;;;;;;;;;;5035474;28;20021;-27
2023/09/10 07:11:53;;;;;;;15.50;12.63;;;;;;;;;;5035359;28;20522;-28
2023/09/10 07:14:19;;;;;;;14.38;11.82;;;;;;;;;;5035374;28;20025;-27
2023/09/10 07:16:45;;;;;;;13.48;11.95;;;;;;;;;;5035511;28;20476;-27
2023/09/10 07:19:11;;;;;;;16.15;11.50;;;;;;;;;;5033988;28;20021;-27
2023/09/10 07:21:36;;;;;;;12.43;10.63;;;;;;;;;;5034402;28;20043;-28
2023/09/10 07:24:06;;;;;;;14.63;10.90;;;;;;;;;;5033299;28;20100;-28
2023/09/10 07:26:31;;;;;;;12.65;10.55;;;;;;;;;;5033192;28;20107;-28
2023/09/10 07:28:56;;;;;;;15.83;10.50;;;;;;;;;;5032898;28;20472;-28
2023/09/10 07:31:21;;;;;;;14.53;11.00;;;;;;;;;;5032909;28;20013;-28
2023/09/10 07:33:47;;;;;;;14.67;10.20;;;;;;;;;;5032963;28;20017;-28
2023/09/10 07:36:12;;;;;;;15.03;10.77;;;;;;;;;;5031802;28;20025;-28
2023/09/10 07:38:37;;;;;;;13.13;10.57;;;;;;;;;;5034163;28;20475;-28
2023/09/10 07:41:03;;;;;;;13.93;10.33;;;;;;;;;;5034907;28;20029;-28
2023/09/10 07:43:28;;;;;;;14.95;10.50;;;;;;;;;;5035032;28;20522;-28
2023/09/10 07:45:53;;;;;;;13.03;10.63;;;;;;;;;;5034793;28;20101;-28
2023/09/10 07:48:18;;;;;;;14.03;10.20;;;;;;;;;;5034221;28;20087;-28
2023/09/10 07:50:52;;;;;;;14.97;10.80;;;;;;;;;;5034747;28;20029;-28
2023/09/10 07:53:17;;;;;;;22.42;10.85;;;;;;;;;;5034818;28;20456;-28
2023/09/10 07:55:42;;;;;;;14.07;10.83;;;;;;;;;;5034459;28;20057;-28
2023/09/10 07:58:08;;;;;;;20.27;11.87;;;;;;;;;;5035076;28;20021;-28
2023/09/10 08:00:34;;;;;;;14.23;11.13;;;;;;;;;;5034424;28;20073;-28
2023/09/10 08:03:03;;;;;;;16.27;11.98;;;;;;;;;;5034743;28;20021;-28
2023/09/10 08:05:28;;;;;;;16.77;11.05;;;;;;;;;;5034410;28;20076;-28
2023/09/10 08:07:53;;;;;;;16.90;12.53;;;;;;;;;;5034302;28;20044;-28
2023/09/10 08:10:19;;;;;;;14.75;11.75;;;;;;;;;;5034587;28;20476;-27
2023/09/10 08:12:44;;;;;;;17.15;12.15;;;;;;;;;;5034221;28;20032;-28
2023/09/10 08:15:09;;;;;;;16.63;12.20;;;;;;;;;;5034228;28;20021;-27
2023/09/10 08:17:35;;;;;;;15.65;12.27;;;;;;;;;;5034435;28;20025;-28
2023/09/10 08:20:01;;;;;;;14.48;12.20;;;;;;;;;;5016533;28;20021;-28
2023/09/10 08:22:27;;;;;;;15.10;12.07;;;;;;;;;;5016573;28;20067;-28
2023/09/10 08:24:55;;;;;;;18.27;12.77;;;;;;;;;;5034627;28;20017;-28
2023/09/10 08:27:20;;;;;;;15.40;12.10;;;;;;;;;;5034274;28;20111;-28
2023/09/10 08:29:45;;;;;;;14.70;12.00;;;;;;;;;;5034226;28;20053;-28
2023/09/10 08:32:10;;;;;;;20.93;12.47;;;;;;;;;;5034158;28;20017;-28
2023/09/10 08:34:35;;;;;;;15.50;12.50;;;;;;;;;;5034066;28;20096;-28
2023/09/10 08:37:05;;;;;;;16.73;12.07;;;;;;;;;;5034093;28;20049;-28
2023/09/10 08:39:30;;;;;;;16.50;12.30;;;;;;;;;;5033981;28;20345;-28
2023/09/10 08:41:56;;;;;;;17.60;12.23;;;;;;;;;;5033716;28;20028;-28
2023/09/10 08:44:22;;;;;;;18.90;12.50;;;;;;;;;;5016028;28;20032;-28
2023/09/10 08:46:48;;;;;;;17.60;12.07;;;;;;;;;;5034702;28;20056;-28
2023/09/10 08:49:14;;;;;;;21.38;12.30;;;;;;;;;;5033752;28;20095;-28
2023/09/10 08:51:39;;;;;;;19.70;12.07;;;;;;;;;;5034268;28;20403;-27
2023/09/10 08:54:05;;;;;;;15.70;12.30;;;;;;;;;;5033557;28;20034;-28
2023/09/10 08:56:31;;;;;;;21.90;13.60;;;;;;;;;;5033332;28;20021;-28
2023/09/10 08:58:57;;;;;;;20.52;12.40;;;;;;;;;;5016261;28;20152;-28
2023/09/10 09:01:23;;;;;;;15.30;12.15;;;;;;;;;;5033030;28;20097;-27
2023/09/10 09:03:48;;;;;;;23.20;12.38;;;;;;;;;;5033986;28;20021;-27
2023/09/10 09:06:13;;;;;;;19.23;12.60;;;;;;;;;;5033285;28;20494;-27
2023/09/10 09:08:40;;;;;;;21.60;12.52;;;;;;;;;;5033840;28;20248;-28
2023/09/10 09:11:06;;;;;;;23.20;12.18;;;;;;;;;;5033344;28;20105;-28
2023/09/10 09:13:36;;;;;;;17.23;11.55;;;;;;;;;;5032387;28;20466;-28
2023/09/10 09:16:02;;;;;;;19.55;12.13;;;;;;;;;;5033089;28;20010;-27
2023/09/10 09:18:28;;;;;;;14.52;11.00;;;;;;;;;;5032267;28;20052;-28
2023/09/10 09:20:55;;;;;;;15.32;11.13;;;;;;;;;;5031608;28;20101;-28
2023/09/10 09:23:25;;;;;;;20.88;10.35;;;;;;;;;;5033702;28;20096;-28
2023/09/10 09:25:51;;;;;;;17.73;10.20;;;;;;;;;;5033313;28;20025;-28
2023/09/10 09:28:16;;;;;;;15.90;9.90;;;;;;;;;;5033154;28;20468;-28
2023/09/10 09:30:42;;;;;;;14.68;10.00;;;;;;;;;;5033626;28;20013;-28
2023/09/10 09:33:07;;;;;;;19.07;10.23;;;;;;;;;;5033572;28;20041;-28
2023/09/10 09:35:33;;;;;;;23.42;10.50;;;;;;;;;;5033033;28;20372;-28
2023/09/10 09:38:03;;;;;;;18.50;10.02;;;;;;;;;;5032998;28;20026;-28
2023/09/10 09:40:29;;;;;;;17.25;10.38;;;;;;;;;;5033529;28;20097;-27
2023/09/10 09:42:57;;;;;;;18.45;9.65;;;;;;;;;;5015541;28;20108;-28
2023/09/10 09:45:23;;;;;;;18.85;9.32;;;;;;;;;;5032642;28;20022;-28
2023/09/10 09:47:49;;;;;;;23.90;10.13;;;;;;;;;;4998741;28;20029;-27
2023/09/10 09:50:14;;;;;;;14.95;8.73;;;;;;;;;;5033048;28;20483;-28
2023/09/10 09:52:39;;;;;;;15.63;8.68;;;;;;;;;;5033088;28;20379;-29
2023/09/10 09:55:05;;;;;;;21.63;8.10;;;;;;;;;;5032620;28;20117;-27
2023/09/10 09:57:34;;;;;;;15.05;9.23;;;;;;;;;;5033080;28;20028;-28
2023/09/10 09:59:59;;;;;;;11.73;7.90;;;;;;;;;;5032175;28;20053;-28
2023/09/10 10:02:25;;;;;;;15.67;8.23;;;;;;;;;;5030681;28;20029;-28
2023/09/10 10:04:50;;;;;;;16.77;8.30;;;;;;;;;;5030550;28;20018;-28
2023/09/10 10:07:15;;;;;;;13.47;7.50;;;;;;;;;;5030466;28;20040;-28
2023/09/10 10:09:41;;;;;;;19.90;7.50;;;;;;;;;;5030459;28;20048;-28
2023/09/10 10:12:07;;;;;;;17.60;8.18;;;;;;;;;;5033047;28;20264;-28
2023/09/10 10:14:33;;;;;;;16.80;7.60;;;;;;;;;;5034483;28;20010;-28
2023/09/10 10:17:02;;;;;;;18.92;6.93;;;;;;;;;;5035582;28;20018;-27
2023/09/10 10:19:31;;;;;;;14.10;7.40;;;;;;;;;;5036223;28;20028;-28
2023/09/10 10:21:57;;;;;;;18.27;7.57;;;;;;;;;;5035873;28;20022;-28
2023/09/10 10:24:23;;;;;;;16.00;7.20;;;;;;;;;;5035644;28;20019;-28
2023/09/10 10:26:49;;;;;;;16.75;7.05;;;;;;;;;;5035405;28;20072;-28
2023/09/10 10:29:15;;;;;;;12.38;6.25;;;;;;;;;;5035422;28;20017;-27
2023/09/10 10:31:41;;;;;;;14.10;6.47;;;;;;;;;;5035330;28;20068;-28
2023/09/10 10:34:14;;;;;;;14.63;6.15;;;;;;;;;;5036783;28;20022;-28
2023/09/10 10:36:48;;;;;;;12.52;5.85;;;;;;;;;;5036013;28;20021;-28
2023/09/10 10:39:15;;;;;;;13.48;6.40;;;;;;;;;;5018214;28;20026;-28
2023/09/10 10:41:45;;;;;;;10.80;5.78;;;;;;;;;;5035844;28;20013;-28
2023/09/10 10:44:20;;;;;;;10.73;5.50;;;;;;;;;;5036593;28;20506;-28
2023/09/10 10:46:48;;;;;;;19.13;6.22;;;;;;;;;;5035914;28;20021;-28
2023/09/10 10:49:13;;;;;;;13.35;5.50;;;;;;;;;;5035922;28;20029;-28
2023/09/10 10:51:42;;;;;;;14.20;5.37;;;;;;;;;;5036386;28;20021;-28
2023/09/10 10:54:07;;;;;;;9.88;5.25;;;;;;;;;;5035919;28;20018;-28
2023/09/10 10:56:33;;;;;;;11.57;5.60;;;;;;;;;;5035783;28;20029;-28
2023/09/10 10:58:58;;;;;;;15.27;5.82;;;;;;;;;;5035858;28;20427;-28
2023/09/10 11:01:24;;;;;;;12.43;5.43;;;;;;;;;;5035242;28;20014;-28
2023/09/10 11:03:49;;;;;;;14.30;6.40;;;;;;;;;;5015769;28;20024;-28
2023/09/10 11:06:15;;;;;;;15.57;5.10;;;;;;;;;;5033493;28;20025;-28
2023/09/10 11:08:41;;;;;;;10.23;4.93;;;;;;;;;;5033727;28;20029;-27
2023/09/10 11:11:08;;;;;;;13.40;4.55;;;;;;;;;;5033449;28;20022;-28
2023/09/10 11:13:33;;;;;;;12.80;5.10;;;;;;;;;;5033415;28;20092;-28
2023/09/10 11:16:04;;;;;;;16.23;5.97;;;;;;;;;;5033526;28;20133;-27
2023/09/10 11:18:35;;;;;;;17.97;5.23;;;;;;;;;;5035604;28;20022;-28
2023/09/10 11:21:10;;;;;;;16.55;5.78;;;;;;;;;;5035407;28;20020;-28
2023/09/10 11:23:37;;;;;;;11.13;5.20;;;;;;;;;;5034760;28;20479;-28
2023/09/10 11:26:11;;;;;;;12.60;5.05;;;;;;;;;;5035238;28;20108;-28
2023/09/10 11:28:46;;;;;;;11.52;4.63;;;;;;;;;;5035658;28;20095;-27
2023/09/10 11:31:30;;;;;;;14.98;4.10;;;;;;;;;;5035136;28;20436;-28
2023/09/10 11:33:58;;;;;;;15.27;4.32;;;;;;;;;;5035043;28;20480;-28
2023/09/10 11:36:24;;;;;;;11.75;4.10;;;;;;;;;;5033613;28;20109;-28
2023/09/10 11:38:49;;;;;;;8.73;4.00;;;;;;;;;;5034982;28;20507;-28
2023/09/10 11:41:14;;;;;;;11.70;4.17;;;;;;;;;;5017092;28;20045;-28
2023/09/10 11:43:40;;;;;;;10.23;4.03;;;;;;;;;;5034755;28;20091;-28
2023/09/10 11:46:06;;;;;;;13.82;4.00;;;;;;;;;;5034677;28;20025;-28
2023/09/10 11:48:31;;;;;;;10.90;4.28;;;;;;;;;;5034300;28;20107;-29
2023/09/10 11:50:56;;;;;;;13.50;4.20;;;;;;;;;;5032786;28;20087;-28
2023/09/10 11:53:22;;;;;;;14.25;4.72;;;;;;;;;;5032207;28;20544;-29
2023/09/10 11:55:47;;;;;;;17.10;4.07;;;;;;;;;;5031373;28;20021;-28
2023/09/10 11:58:12;;;;;;;10.27;4.07;;;;;;;;;;5031198;28;20025;-28
2023/09/10 12:00:40;;;;;;;15.27;4.60;;;;;;;;;;5030874;28;20033;-27
2023/09/10 12:03:06;;;;;;;14.75;4.18;;;;;;;;;;5031138;28;20021;-28
2023/09/10 12:05:31;;;;;;;12.33;4.20;;;;;;;;;;5032394;28;20017;-28
2023/09/10 12:07:58;;;;;;;12.33;4.00;;;;;;;;;;5032772;28;20460;-28
2023/09/10 12:10:23;;;;;;;10.07;3.65;;;;;;;;;;5034359;28;20384;-28
2023/09/10 12:12:48;;;;;;;13.45;3.80;;;;;;;;;;5016645;28;20022;-28
2023/09/10 12:15:14;;;;;;;11.30;3.83;;;;;;;;;;5034815;28;20083;-28
2023/09/10 12:17:39;;;;;;;12.88;3.85;;;;;;;;;;5034168;28;20025;-28
2023/09/10 12:20:05;;;;;;;12.30;4.47;;;;;;;;;;5034262;28;20464;-28
2023/09/10 12:22:30;;;;;;;11.43;4.10;;;;;;;;;;5034892;28;20021;-28
2023/09/10 12:24:56;;;;;;;13.13;4.27;;;;;;;;;;5034575;28;20017;-32
2023/09/10 12:27:21;;;;;;;12.88;4.60;;;;;;;;;;5016416;28;20112;-27
2023/09/10 12:29:47;;;;;;;11.23;4.30;;;;;;;;;;5034156;28;20048;-27
2023/09/10 12:32:12;;;;;;;14.27;4.40;;;;;;;;;;5034001;28;20056;-27
2023/09/10 12:34:37;;;;;;;12.23;4.50;;;;;;;;;;5034562;28;20025;-28
2023/09/10 12:37:03;;;;;;;13.02;4.57;;;;;;;;;;5034165;28;20480;-28
2023/09/10 12:39:28;;;;;;;16.10;5.00;;;;;;;;;;5034226;28;20021;-28
2023/09/10 12:41:55;;;;;;;14.07;4.80;;;;;;;;;;5016593;28;20017;-28
2023/09/10 12:44:21;;;;;;;13.13;4.95;;;;;;;;;;5034094;28;20030;-27
2023/09/10 12:46:47;;;;;;;14.17;5.17;;;;;;;;;;5033782;28;20029;-27
2023/09/10 12:49:12;;;;;;;15.95;5.13;;;;;;;;;;5033572;28;20052;-28
2023/09/10 12:51:38;;;;;;;10.68;5.38;;;;;;;;;;5033877;28;20021;-27
2023/09/10 12:54:03;;;;;;;16.35;5.45;;;;;;;;;;5033667;28;20060;-27
2023/09/10 12:56:28;;;;;;;11.70;5.50;;;;;;;;;;5034049;28;20017;-27
2023/09/10 12:58:55;;;;;;;13.98;4.93;;;;;;;;;;5033479;28;20087;-27
2023/09/10 13:01:25;;;;;;;9.40;5.20;;;;;;;;;;5033579;28;20026;-27
2023/09/10 13:03:50;;;;;;;14.60;4.97;;;;;;;;;;5033439;28;20025;-27
2023/09/10 13:06:15;;;;;;;18.30;6.07;;;;;;;;;;5033946;28;20105;-27
2023/09/10 13:08:41;;;;;;;16.47;4.97;;;;;;;;;;5033687;28;20021;-28
2023/09/10 13:11:06;;;;;;;17.13;5.63;;;;;;;;;;5033836;28;20041;-28
2023/09/10 13:13:31;;;;;;;19.03;5.10;;;;;;;;;;5033323;28;20057;-28
2023/09/10 13:15:56;;;;;;;15.10;5.20;;;;;;;;;;5015605;28;20112;-29
2023/09/10 13:18:22;;;;;;;15.30;5.73;;;;;;;;;;5033795;28;20110;-28
2023/09/10 13:20:47;;;;;;;13.35;5.50;;;;;;;;;;5033310;28;20013;-28
2023/09/10 13:23:12;;;;;;;17.98;5.43;;;;;;;;;;5033179;28;20022;-28
2023/09/10 13:25:38;;;;;;;18.27;6.03;;;;;;;;;;5033495;28;20029;-28
2023/09/10 13:28:03;;;;;;;14.40;5.27;;;;;;;;;;5033190;28;20739;-28
2023/09/10 13:30:29;;;;;;;13.63;5.07;;;;;;;;;;5033373;28;20108;-28
2023/09/10 13:32:54;;;;;;;17.63;5.90;;;;;;;;;;5031478;28;20025;-28
2023/09/10 13:35:22;;;;;;;12.67;5.20;;;;;;;;;;5030972;28;20022;-28
2023/09/10 13:37:47;;;;;;;9.00;5.05;;;;;;;;;;5030912;28;20276;-28
2023/09/10 13:40:12;;;;;;;12.70;5.10;;;;;;;;;;5030886;28;20029;-28
2023/09/10 13:42:37;;;;;;;14.37;5.17;;;;;;;;;;5030905;28;20029;-28
2023/09/10 13:45:03;;;;;;;13.50;4.57;;;;;;;;;;5030906;28;20384;-29
2023/09/10 13:47:30;;;;;;;15.82;5.00;;;;;;;;;;5033928;28;20140;-28
2023/09/10 13:49:55;;;;;;;16.58;5.05;;;;;;;;;;5016970;28;20013;-28
2023/09/10 13:52:20;;;;;;;11.60;5.00;;;;;;;;;;5016982;28;20024;-28
2023/09/10 13:54:45;;;;;;;23.33;5.57;;;;;;;;;;5034914;28;20270;-28
2023/09/10 13:57:11;;;;;;;12.57;4.47;;;;;;;;;;5034785;28;20380;-28
2023/09/10 13:59:36;;;;;;;15.77;5.20;;;;;;;;;;5034843;28;20050;-28
2023/09/10 14:02:02;;;;;;;14.97;4.90;;;;;;;;;;5034741;28;20028;-28
2023/09/10 14:04:27;;;;;;;12.25;4.95;;;;;;;;;;5035139;28;20764;-28
2023/09/10 14:06:52;;;;;;;11.67;5.13;;;;;;;;;;5036633;28;20041;-28
2023/09/10 14:09:17;;;;;;;11.73;4.90;;;;;;;;;;5036692;28;20033;-28
2023/09/10 14:11:43;;;;;;;12.63;5.13;;;;;;;;;;5018869;28;20116;-28
2023/09/10 14:14:08;;;;;;;13.93;5.00;;;;;;;;;;5036962;28;20256;-28